createdAt,value
2018-05-10T00:00:29.643Z,99.90
2018-05-10T00:02:57.126Z,99.90
2018-05-10T00:05:25.380Z,99.90
2018-05-10T00:07:52.863Z,99.90
2018-05-10T00:10:21.135Z,99.90
2018-05-10T00:12:49.379Z,99.90
2018-05-10T00:15:16.859Z,99.90
2018-05-10T00:17:44.426Z,99.90
2018-05-10T00:20:12.676Z,99.90
2018-05-10T00:22:41.682Z,99.90
2018-05-10T00:25:09.395Z,99.90
2018-05-10T00:27:36.870Z,99.90
2018-05-10T00:30:04.364Z,99.90
2018-05-10T00:32:32.604Z,99.90
2018-05-10T00:35:00.099Z,99.90
2018-05-10T00:37:28.495Z,99.90
2018-05-10T00:39:57.082Z,99.90
2018-05-10T00:42:25.306Z,99.90
2018-05-10T00:44:52.784Z,99.90
2018-05-10T00:47:20.296Z,99.90
2018-05-10T00:49:47.809Z,99.90
2018-05-10T00:52:16.339Z,99.90
2018-05-10T00:54:55.180Z,99.90
2018-05-10T00:57:22.688Z,99.90
2018-05-10T00:59:50.479Z,99.90
2018-05-10T01:02:18.180Z,99.90
2018-05-10T01:04:45.657Z,99.90
2018-05-10T01:07:14.035Z,99.90
2018-05-10T01:09:42.272Z,99.90
2018-05-10T01:12:09.752Z,99.90
2018-05-10T01:14:37.252Z,99.90
2018-05-10T01:17:04.737Z,99.90
2018-05-10T01:19:32.216Z,99.90
2018-05-10T01:21:59.708Z,99.90
2018-05-10T01:24:27.947Z,99.90
2018-05-10T01:26:55.536Z,99.90
2018-05-10T01:29:23.795Z,99.90
2018-05-10T01:31:51.512Z,99.90
2018-05-10T01:34:18.987Z,99.90
2018-05-10T01:36:46.479Z,99.90
2018-05-10T01:39:14.044Z,99.90
2018-05-10T01:41:42.288Z,99.90
2018-05-10T01:44:09.875Z,99.90
2018-05-10T01:46:38.157Z,99.90
2018-05-10T01:49:06.400Z,99.90
2018-05-10T01:51:33.984Z,99.90
2018-05-10T01:54:01.381Z,99.90
2018-05-10T01:56:28.883Z,99.90
2018-05-10T01:58:56.609Z,99.90
2018-05-10T02:01:24.081Z,99.90
2018-05-10T02:03:51.551Z,99.90
2018-05-10T02:06:19.047Z,99.90
2018-05-10T02:08:47.288Z,99.90
2018-05-10T02:11:15.019Z,99.90
2018-05-10T02:13:42.512Z,99.90
2018-05-10T02:16:09.989Z,99.90
2018-05-10T02:18:38.516Z,99.90
2018-05-10T02:21:06.012Z,99.90
2018-05-10T02:23:34.991Z,99.90
2018-05-10T02:26:02.464Z,99.90
2018-05-10T02:28:30.272Z,99.90
2018-05-10T02:30:57.755Z,99.90
2018-05-10T02:33:25.227Z,99.90
2018-05-10T02:35:52.967Z,99.90
2018-05-10T02:38:20.731Z,99.90
2018-05-10T02:40:48.491Z,99.90
2018-05-10T02:43:15.984Z,99.90
2018-05-10T02:45:43.712Z,99.90
2018-05-10T02:48:11.199Z,99.90
2018-05-10T02:50:39.036Z,99.90
2018-05-10T02:53:06.520Z,99.90
2018-05-10T02:55:34.256Z,99.90
2018-05-10T02:58:01.756Z,99.90
2018-05-10T03:00:30.036Z,99.90
2018-05-10T03:02:57.514Z,99.90
2018-05-10T03:05:25.785Z,99.90
2018-05-10T03:07:54.032Z,99.90
2018-05-10T03:10:21.508Z,99.90
2018-05-10T03:12:49.772Z,99.90
2018-05-10T03:15:17.250Z,99.90
2018-05-10T03:17:45.489Z,99.90
2018-05-10T03:20:13.076Z,99.90
2018-05-10T03:22:41.324Z,99.90
2018-05-10T03:25:08.802Z,99.90
2018-05-10T03:27:36.300Z,99.90
2018-05-10T03:30:03.774Z,99.90
2018-05-10T03:32:31.245Z,99.90
2018-05-10T03:34:58.744Z,99.90
2018-05-10T03:37:26.992Z,99.90
2018-05-10T03:39:54.576Z,99.90
2018-05-10T03:42:22.832Z,99.90
2018-05-10T03:44:50.308Z,99.90
2018-05-10T03:47:18.543Z,99.90
2018-05-10T03:49:46.036Z,99.90
2018-05-10T03:52:14.280Z,99.90
2018-05-10T03:54:43.324Z,99.90
2018-05-10T03:57:11.676Z,99.90
2018-05-10T03:59:39.247Z,99.90
2018-05-10T04:02:07.487Z,99.90
2018-05-10T04:04:46.908Z,99.90
2018-05-10T04:07:26.351Z,99.90
2018-05-10T04:10:06.087Z,99.90
2018-05-10T04:12:33.743Z,99.90
2018-05-10T04:15:01.216Z,99.90
2018-05-10T04:17:28.711Z,99.90
2018-05-10T04:19:57.240Z,99.90
2018-05-10T04:22:24.759Z,99.90
2018-05-10T04:24:53.030Z,99.90
2018-05-10T04:27:21.272Z,99.90
2018-05-10T04:29:48.763Z,99.90
2018-05-10T04:32:17.289Z,99.90
2018-05-10T04:34:44.771Z,99.90
2018-05-10T04:37:12.476Z,99.90
2018-05-10T04:39:40.988Z,99.90
2018-05-10T04:42:08.545Z,99.90
2018-05-10T04:44:36.003Z,99.90
2018-05-10T04:47:03.520Z,99.90
2018-05-10T04:49:31.988Z,99.90
2018-05-10T04:51:59.569Z,99.90
2018-05-10T04:54:28.083Z,99.90
2018-05-10T04:56:55.847Z,99.90
2018-05-10T04:59:23.324Z,99.90
2018-05-10T05:01:51.067Z,99.90
2018-05-10T05:04:18.543Z,99.90
2018-05-10T05:06:46.288Z,99.90
2018-05-10T05:09:13.783Z,99.90
2018-05-10T05:11:42.083Z,99.90
2018-05-10T05:14:10.324Z,99.90
2018-05-10T05:16:37.824Z,99.90
2018-05-10T05:19:06.090Z,99.90
2018-05-10T05:21:34.403Z,99.90
2018-05-10T05:24:01.875Z,99.90
2018-05-10T05:26:29.355Z,99.90
2018-05-10T05:28:56.832Z,99.90
2018-05-10T05:31:24.392Z,99.90
2018-05-10T05:33:51.868Z,99.90
2018-05-10T05:36:20.332Z,99.90
2018-05-10T05:38:48.600Z,99.90
2018-05-10T05:41:16.207Z,99.90
2018-05-10T05:43:44.420Z,99.90
2018-05-10T05:46:12.492Z,99.90
2018-05-10T05:48:39.971Z,99.90
2018-05-10T05:51:08.438Z,99.90
2018-05-10T05:53:35.933Z,99.90
2018-05-10T05:56:03.416Z,99.90
2018-05-10T05:58:30.887Z,99.90
2018-05-10T06:00:58.629Z,99.90
2018-05-10T06:03:26.391Z,99.90
2018-05-10T06:05:53.904Z,99.90
2018-05-10T06:08:22.168Z,99.90
2018-05-10T06:10:49.651Z,99.90
2018-05-10T06:13:18.059Z,99.90
2018-05-10T06:15:45.881Z,99.90
2018-05-10T06:18:14.136Z,99.90
2018-05-10T06:20:41.615Z,99.90
2018-05-10T06:23:09.889Z,99.90
2018-05-10T06:25:38.128Z,99.90
2018-05-10T06:28:05.608Z,99.90
2018-05-10T06:30:33.104Z,99.90
2018-05-10T06:33:00.584Z,99.90
2018-05-10T06:35:28.055Z,99.90
2018-05-10T06:37:55.573Z,99.90
2018-05-10T06:40:23.050Z,99.70
2018-05-10T06:42:50.571Z,97.40
2018-05-10T06:45:18.831Z,93.80
2018-05-10T06:47:46.304Z,93.70
2018-05-10T06:50:14.864Z,93.50
2018-05-10T06:52:42.359Z,93.30
2018-05-10T06:55:09.838Z,91.50
2018-05-10T06:57:37.351Z,88.90
2018-05-10T07:00:05.613Z,91.90
2018-05-10T07:02:33.092Z,91.90
2018-05-10T07:05:01.332Z,91.70
2018-05-10T07:07:28.824Z,91.70
2018-05-10T07:09:57.583Z,92.50
2018-05-10T07:12:24.835Z,92.40
2018-05-10T07:14:52.335Z,92.30
2018-05-10T07:17:19.917Z,91.40
2018-05-10T07:19:47.620Z,93.20
2018-05-10T07:22:15.120Z,92.90
2018-05-10T07:24:42.907Z,93.30
2018-05-10T07:27:10.387Z,92.30
2018-05-10T07:29:38.128Z,92.20
2018-05-10T07:32:05.640Z,92.20
2018-05-10T07:34:33.883Z,92.80
2018-05-10T07:37:01.376Z,92.70
2018-05-10T07:39:29.619Z,95.90
2018-05-10T07:41:57.411Z,95.90
2018-05-10T07:44:24.868Z,97.30
2018-05-10T07:46:53.760Z,97.30
2018-05-10T07:49:22.004Z,96.60
2018-05-10T07:51:49.504Z,96.50
2018-05-10T07:54:17.744Z,97.40
2018-05-10T07:56:46.024Z,97.50
2018-05-10T07:59:13.603Z,97.50
2018-05-10T08:01:42.128Z,96.20
2018-05-10T08:04:09.603Z,96.30
2018-05-10T08:06:37.095Z,96.00
2018-05-10T08:09:05.628Z,96.60
2018-05-10T08:11:33.108Z,96.60
2018-05-10T08:14:00.604Z,98.00
2018-05-10T08:16:28.848Z,99.20
2018-05-10T08:18:56.324Z,99.20
2018-05-10T08:21:30.612Z,99.90
2018-05-10T08:23:58.088Z,99.90
2018-05-10T08:26:25.567Z,99.90
2018-05-10T08:28:53.835Z,99.90
2018-05-10T08:31:22.080Z,99.80
2018-05-10T08:33:49.553Z,99.80
2018-05-10T08:36:17.812Z,99.90
2018-05-10T08:38:45.293Z,99.90
2018-05-10T08:41:12.768Z,99.90
2018-05-10T08:43:41.035Z,99.90
2018-05-10T08:46:09.284Z,99.90
2018-05-10T08:48:36.872Z,99.90
2018-05-10T08:51:06.311Z,99.90
2018-05-10T08:53:33.783Z,99.90
2018-05-10T08:56:01.269Z,99.90
2018-05-10T08:58:28.768Z,99.90
2018-05-10T09:00:56.303Z,99.90
2018-05-10T09:03:24.615Z,99.90
2018-05-10T09:05:52.113Z,99.90
2018-05-10T09:08:19.592Z,99.90
2018-05-10T09:10:47.860Z,99.90
2018-05-10T09:13:15.432Z,99.90
2018-05-10T09:15:43.676Z,99.90
2018-05-10T09:18:11.152Z,99.90
2018-05-10T09:20:38.647Z,99.90
2018-05-10T09:23:06.344Z,99.90
2018-05-10T09:25:33.819Z,99.90
2018-05-10T09:28:01.316Z,99.90
2018-05-10T09:30:28.795Z,99.90
2018-05-10T09:32:56.279Z,99.90
2018-05-10T09:35:23.785Z,99.90
2018-05-10T09:37:51.488Z,99.90
2018-05-10T09:40:19.240Z,99.90
2018-05-10T09:42:46.735Z,99.90
2018-05-10T09:45:15.276Z,99.90
2018-05-10T09:47:42.748Z,99.90
2018-05-10T09:50:10.600Z,99.90
2018-05-10T09:52:38.138Z,99.90
2018-05-10T09:55:05.616Z,99.90
2018-05-10T09:57:33.117Z,99.90
2018-05-10T10:00:00.688Z,99.90
2018-05-10T10:02:29.212Z,99.90
2018-05-10T10:04:56.704Z,99.90
2018-05-10T10:07:24.185Z,99.90
2018-05-10T10:09:52.424Z,99.90
2018-05-10T10:12:19.916Z,99.90
2018-05-10T10:14:48.163Z,99.90
2018-05-10T10:17:15.639Z,99.90
2018-05-10T10:19:43.140Z,99.90
2018-05-10T10:22:10.665Z,99.90
2018-05-10T10:24:38.908Z,99.90
2018-05-10T10:27:06.645Z,99.90
2018-05-10T10:29:34.124Z,99.90
2018-05-10T10:32:01.622Z,99.90
2018-05-10T10:34:29.961Z,99.90
2018-05-10T10:36:57.388Z,99.90
2018-05-10T10:39:24.868Z,99.90
2018-05-10T10:41:52.612Z,99.90
2018-05-10T10:44:20.380Z,99.90
2018-05-10T10:46:47.856Z,99.90
2018-05-10T10:49:15.356Z,99.90
2018-05-10T10:51:43.819Z,99.90
2018-05-10T10:54:12.351Z,99.90
2018-05-10T10:56:39.848Z,99.90
2018-05-10T10:59:07.576Z,99.90
2018-05-10T11:01:35.114Z,99.90
2018-05-10T11:04:02.690Z,99.90
2018-05-10T11:06:30.456Z,99.90
2018-05-10T11:08:57.940Z,99.90
2018-05-10T11:11:25.435Z,99.90
2018-05-10T11:13:53.807Z,99.90
2018-05-10T11:16:22.084Z,99.90
2018-05-10T11:18:50.368Z,99.90
2018-05-10T11:21:18.617Z,99.90
2018-05-10T11:23:46.122Z,99.90
2018-05-10T11:26:13.612Z,99.90
2018-05-10T11:28:41.092Z,99.90
2018-05-10T11:31:08.564Z,99.90
2018-05-10T11:33:37.090Z,99.90
2018-05-10T11:36:04.623Z,99.90
2018-05-10T11:38:32.065Z,99.90
2018-05-10T11:41:00.324Z,99.90
2018-05-10T11:43:27.801Z,99.90
2018-05-10T11:45:56.316Z,99.90
2018-05-10T11:48:23.812Z,99.90
2018-05-10T11:50:51.285Z,99.90
2018-05-10T11:53:19.535Z,99.90
2018-05-10T11:55:47.035Z,99.90
2018-05-10T11:58:14.521Z,99.90
2018-05-10T12:00:42.004Z,99.90
2018-05-10T12:03:09.495Z,99.90
2018-05-10T12:05:37.740Z,99.90
2018-05-10T12:08:05.221Z,99.90
2018-05-10T12:10:32.716Z,99.90
2018-05-10T12:13:00.200Z,99.90
2018-05-10T12:15:27.943Z,99.90
2018-05-10T12:17:55.447Z,99.90
2018-05-10T12:20:22.989Z,99.90
2018-05-10T12:22:50.493Z,99.90
2018-05-10T12:25:17.991Z,99.90
2018-05-10T12:27:45.768Z,99.90
2018-05-10T12:30:13.464Z,99.90
2018-05-10T12:32:43.488Z,99.90
2018-05-10T12:35:11.732Z,99.90
2018-05-10T12:37:39.224Z,99.90
2018-05-10T12:40:07.506Z,99.90
2018-05-10T12:42:34.981Z,99.90
2018-05-10T12:45:02.467Z,98.70
2018-05-10T12:47:30.020Z,99.10
2018-05-10T12:49:57.496Z,99.90
2018-05-10T12:52:24.972Z,99.90
2018-05-10T12:54:53.240Z,99.90
2018-05-10T12:57:21.028Z,99.90
2018-05-10T12:59:48.505Z,99.90
2018-05-10T13:02:16.000Z,99.90
2018-05-10T13:04:43.483Z,99.90
2018-05-10T13:07:11.763Z,99.90
2018-05-10T13:09:40.037Z,99.90
2018-05-10T13:12:08.320Z,99.90
2018-05-10T13:14:36.560Z,99.90
2018-05-10T13:17:04.056Z,99.90
2018-05-10T13:19:32.364Z,99.90
2018-05-10T13:22:00.028Z,99.90
2018-05-10T13:24:27.520Z,99.90
2018-05-10T13:26:54.995Z,99.90
2018-05-10T13:29:23.240Z,99.90
2018-05-10T13:31:50.740Z,99.90
2018-05-10T13:34:18.984Z,99.90
2018-05-10T13:36:47.282Z,99.90
2018-05-10T13:39:15.826Z,99.90
2018-05-10T13:41:43.321Z,99.90
2018-05-10T13:44:11.564Z,99.90
2018-05-10T13:46:39.072Z,99.90
2018-05-10T13:49:06.550Z,99.90
2018-05-10T13:51:34.067Z,99.90
2018-05-10T13:54:02.560Z,99.90
2018-05-10T13:56:30.836Z,99.90
2018-05-10T13:58:58.304Z,99.90
2018-05-10T14:01:26.088Z,99.90
2018-05-10T14:03:53.608Z,99.90
2018-05-10T14:06:21.883Z,99.90
2018-05-10T14:08:49.400Z,99.90
2018-05-10T14:11:16.884Z,99.90
2018-05-10T14:13:45.144Z,99.90
2018-05-10T14:16:12.637Z,99.90
2018-05-10T14:18:40.876Z,99.90
2018-05-10T14:21:08.348Z,99.90
2018-05-10T14:23:36.168Z,99.90
2018-05-10T14:26:03.681Z,99.90
2018-05-10T14:28:31.960Z,99.90
2018-05-10T14:31:00.228Z,99.90
2018-05-10T14:33:27.940Z,99.90
2018-05-10T14:35:55.706Z,99.90
2018-05-10T14:38:23.422Z,99.90
2018-05-10T14:40:51.663Z,99.90
2018-05-10T14:43:19.141Z,99.90
2018-05-10T14:45:46.642Z,99.90
2018-05-10T14:48:15.751Z,99.90
2018-05-10T14:50:43.227Z,99.90
2018-05-10T14:53:10.723Z,99.90
2018-05-10T14:55:38.970Z,99.90
2018-05-10T14:58:06.455Z,99.90
2018-05-10T15:00:35.088Z,99.90
2018-05-10T15:03:02.592Z,99.90
2018-05-10T15:05:30.839Z,99.90
2018-05-10T15:07:58.478Z,99.90
2018-05-10T15:10:25.959Z,99.90
2018-05-10T15:12:53.440Z,99.90
2018-05-10T15:15:21.719Z,99.90
2018-05-10T15:17:49.232Z,99.90
2018-05-10T15:20:16.988Z,99.90
2018-05-10T15:22:44.485Z,99.90
2018-05-10T15:25:11.960Z,99.90
2018-05-10T15:27:40.195Z,99.90
2018-05-10T15:30:07.691Z,99.90
2018-05-10T15:32:35.958Z,99.90
2018-05-10T15:35:03.676Z,99.90
2018-05-10T15:37:31.257Z,99.90
2018-05-10T15:39:58.733Z,99.90
2018-05-10T15:42:26.207Z,99.90
2018-05-10T15:44:54.473Z,99.90
2018-05-10T15:47:22.756Z,99.90
2018-05-10T15:49:51.071Z,99.90
2018-05-10T15:52:18.597Z,99.90
2018-05-10T15:54:46.849Z,99.90
2018-05-10T15:57:14.357Z,99.90
2018-05-10T15:59:42.134Z,99.90
2018-05-10T16:02:09.612Z,99.90
2018-05-10T16:04:37.092Z,99.90
2018-05-10T16:07:04.592Z,99.90
2018-05-10T16:09:32.369Z,99.90
2018-05-10T16:11:59.843Z,99.90
2018-05-10T16:14:27.377Z,99.90
2018-05-10T16:16:54.853Z,99.90
2018-05-10T16:19:22.324Z,99.90
2018-05-10T16:21:50.061Z,99.90
2018-05-10T16:24:17.674Z,99.90
2018-05-10T16:26:45.920Z,99.90
2018-05-10T16:29:13.416Z,99.90
2018-05-10T16:31:41.937Z,99.90
2018-05-10T16:34:09.696Z,99.90
2018-05-10T16:36:37.218Z,99.90
2018-05-10T16:39:05.480Z,99.90
2018-05-10T16:41:33.728Z,99.90
2018-05-10T16:44:01.320Z,99.90
2018-05-10T16:46:29.580Z,99.90
2018-05-10T16:48:57.892Z,99.90
2018-05-10T16:51:25.384Z,99.90
2018-05-10T16:53:52.860Z,99.90
2018-05-10T16:56:20.341Z,99.90
2018-05-10T16:58:48.609Z,99.90
2018-05-10T17:01:16.083Z,99.90
2018-05-10T17:03:44.710Z,99.90
2018-05-10T17:06:12.203Z,99.90
2018-05-10T17:08:39.679Z,99.90
2018-05-10T17:11:07.926Z,99.90
2018-05-10T17:13:35.421Z,99.90
2018-05-10T17:16:03.664Z,99.90
2018-05-10T17:18:31.332Z,99.90
2018-05-10T17:20:59.527Z,99.90
2018-05-10T17:23:27.772Z,99.90
2018-05-10T17:25:55.291Z,99.90
2018-05-10T17:28:22.784Z,99.90
2018-05-10T17:30:50.283Z,99.90
2018-05-10T17:33:18.525Z,99.90
2018-05-10T17:35:46.036Z,99.90
2018-05-10T17:38:13.703Z,99.90
2018-05-10T17:40:41.469Z,99.90
2018-05-10T17:43:08.976Z,99.90
2018-05-10T17:45:37.231Z,99.90
2018-05-10T17:48:04.769Z,99.90
2018-05-10T17:50:32.989Z,99.90
2018-05-10T17:53:01.248Z,99.90
2018-05-10T17:55:28.976Z,99.90
2018-05-10T17:57:56.471Z,99.90
2018-05-10T18:00:23.948Z,99.90
2018-05-10T18:02:52.474Z,99.90
2018-05-10T18:05:19.980Z,99.90
2018-05-10T18:07:48.231Z,99.90
2018-05-10T18:10:15.968Z,99.90
2018-05-10T18:12:43.732Z,99.90
2018-05-10T18:15:11.207Z,99.90
2018-05-10T18:17:38.953Z,99.90
2018-05-10T18:20:06.452Z,99.90
2018-05-10T18:22:34.700Z,99.90
2018-05-10T18:25:02.453Z,99.90
2018-05-10T18:27:29.963Z,99.90
2018-05-10T18:29:58.212Z,99.90
2018-05-10T18:32:25.686Z,99.90
2018-05-10T18:34:53.184Z,99.90
2018-05-10T18:37:20.888Z,99.90
2018-05-10T18:39:48.364Z,99.90
2018-05-10T18:42:15.855Z,99.90
2018-05-10T18:44:43.329Z,99.90
2018-05-10T18:47:11.103Z,99.90
2018-05-10T18:49:38.599Z,99.90
2018-05-10T18:52:06.071Z,99.90
2018-05-10T18:54:34.381Z,99.90
2018-05-10T18:57:01.819Z,99.90
2018-05-10T18:59:29.355Z,99.90
2018-05-10T19:01:57.637Z,99.90
2018-05-10T19:04:25.892Z,99.90
2018-05-10T19:06:53.612Z,99.90
2018-05-10T19:09:21.087Z,99.90
2018-05-10T19:11:48.812Z,99.90
2018-05-10T19:14:16.292Z,99.90
2018-05-10T19:16:43.948Z,99.90
2018-05-10T19:19:11.473Z,99.90
2018-05-10T19:21:40.152Z,99.90
2018-05-10T19:24:08.676Z,99.90
2018-05-10T19:26:38.172Z,99.90
2018-05-10T19:29:05.672Z,99.90
2018-05-10T19:31:33.156Z,99.90
2018-05-10T19:34:01.478Z,99.90
2018-05-10T19:36:28.956Z,99.90
2018-05-10T19:38:56.450Z,99.90
2018-05-10T19:41:24.726Z,99.90
2018-05-10T19:43:52.969Z,99.90
2018-05-10T19:46:20.448Z,99.90
2018-05-10T19:48:48.719Z,99.90
2018-05-10T19:51:16.438Z,99.90
2018-05-10T19:53:43.995Z,99.90
2018-05-10T19:56:11.492Z,99.90
2018-05-10T19:58:38.968Z,99.90
2018-05-10T20:01:07.212Z,99.90
2018-05-10T20:03:34.720Z,99.90
2018-05-10T20:06:02.200Z,99.90
2018-05-10T20:08:29.702Z,99.90
2018-05-10T20:10:58.000Z,99.90
2018-05-10T20:13:26.774Z,99.90
2018-05-10T20:15:54.416Z,99.90
2018-05-10T20:18:21.915Z,99.90
2018-05-10T20:20:49.709Z,99.90
2018-05-10T20:23:17.194Z,99.90
2018-05-10T20:25:44.693Z,99.90
2018-05-10T20:28:12.376Z,99.90
2018-05-10T20:30:39.831Z,99.90
2018-05-10T20:33:07.600Z,99.90
2018-05-10T20:35:35.192Z,99.90
2018-05-10T20:38:02.677Z,99.90
2018-05-10T20:40:31.144Z,99.90
2018-05-10T20:42:58.710Z,99.90
2018-05-10T20:45:26.975Z,99.90
2018-05-10T20:47:55.392Z,99.90
2018-05-10T20:50:23.183Z,99.90
2018-05-10T20:52:51.927Z,99.90
2018-05-10T20:55:19.716Z,99.90
2018-05-10T20:57:47.617Z,99.90
2018-05-10T21:00:16.210Z,99.90
2018-05-10T21:02:45.576Z,99.90
2018-05-10T21:05:13.088Z,99.90
2018-05-10T21:07:41.363Z,99.90
2018-05-10T21:10:09.171Z,99.90
2018-05-10T21:12:43.905Z,99.90
2018-05-10T21:15:11.404Z,99.90
2018-05-10T21:17:39.860Z,99.90
2018-05-10T21:20:07.331Z,99.90
2018-05-10T21:22:34.828Z,99.90
2018-05-10T21:25:02.380Z,99.90
2018-05-10T21:27:30.855Z,99.90
2018-05-10T21:29:59.111Z,99.90
2018-05-10T21:32:28.368Z,99.90
2018-05-10T21:34:55.850Z,99.90
2018-05-10T21:37:23.340Z,99.90
2018-05-10T21:39:51.588Z,99.90
2018-05-10T21:42:19.115Z,99.90
2018-05-10T21:44:46.656Z,99.90
2018-05-10T21:47:14.187Z,99.90
2018-05-10T21:49:54.325Z,99.90
2018-05-10T21:52:21.848Z,99.90
2018-05-10T21:54:49.480Z,99.90
2018-05-10T21:57:16.976Z,99.90
2018-05-10T21:59:44.481Z,99.90
2018-05-10T22:02:12.037Z,99.90
2018-05-10T22:04:40.303Z,99.90
2018-05-10T22:07:08.548Z,99.90
2018-05-10T22:09:36.292Z,99.90
2018-05-10T22:12:03.790Z,99.90
2018-05-10T22:14:31.273Z,99.90
2018-05-10T22:16:59.524Z,99.90
2018-05-10T22:19:27.855Z,99.90
2018-05-10T22:21:55.623Z,99.90
2018-05-10T22:24:23.136Z,99.90
2018-05-10T22:26:50.946Z,99.90
2018-05-10T22:29:18.575Z,99.90
2018-05-10T22:31:46.816Z,99.90
2018-05-10T22:34:14.308Z,99.90
2018-05-10T22:36:43.167Z,99.90
2018-05-10T22:39:11.482Z,99.90
2018-05-10T22:41:39.056Z,99.90
2018-05-10T22:44:06.829Z,99.90
2018-05-10T22:46:34.356Z,99.90
2018-05-10T22:49:02.624Z,99.90
2018-05-10T22:51:31.151Z,99.90
2018-05-10T22:53:59.011Z,99.90
2018-05-10T22:56:26.512Z,99.90
2018-05-10T22:58:54.263Z,99.90
2018-05-10T23:01:21.995Z,99.90
2018-05-10T23:03:49.759Z,99.90
2018-05-10T23:06:17.401Z,99.90
2018-05-10T23:08:44.780Z,99.90
2018-05-10T23:11:12.272Z,99.90
2018-05-10T23:13:40.543Z,99.90
2018-05-10T23:16:08.019Z,99.90
2018-05-10T23:18:35.853Z,99.90
2018-05-10T23:21:03.335Z,99.90
2018-05-10T23:23:31.588Z,99.90
2018-05-10T23:25:59.206Z,99.90
2018-05-10T23:28:26.988Z,99.90
2018-05-10T23:30:54.464Z,99.90
2018-05-10T23:33:21.960Z,99.90
2018-05-10T23:35:50.203Z,99.90
2018-05-10T23:38:17.945Z,99.90
2018-05-10T23:40:45.452Z,99.90
2018-05-10T23:43:13.728Z,99.90
2018-05-10T23:45:41.976Z,99.90
2018-05-10T23:48:09.564Z,99.90
2018-05-10T23:50:38.056Z,99.90
2018-05-10T23:53:06.295Z,99.90
2018-05-10T23:55:33.788Z,99.90
2018-05-10T23:58:02.033Z,99.90
